Disney Magic — C6PT7 — position and weather

sailwx.info

Track history (hours):
 
Tides and Currents Weather Stations Pressure Air Temp Water Temp Dewpoint Dewpoint Depression Visibility Wind Speed Wind Dir Waves Ship Positions

Disney Magic

Last reported at 2016-Aug-25 22:12 UTC. Time now 2016-Aug-26 01:32 UTC.
Position N 43°10' E 007°06'.

Type: Passenger vessel. MMSI: 308516000.

Date/timePositionNaut miles runAvg speedWind from/ knotsBaromVisibWave heightAir tempDewpointWater temp
2016-Aug-25 22:12N 43°10' E 007°06'6 9.6
2016-Aug-25 21:33N 43°15' E 007°10'0 0.4
2016-Aug-25 20:33N 43°15' E 007°11'6 6.3
2016-Aug-25 19:33N 43°21' E 007°10'9 9.4
2016-Aug-25 18:33N 43°30' E 007°14'9 9.2
2016-Aug-25 17:33N 43°39' E 007°19'2 2.4
2016-Aug-25 16:31N 43°41' E 007°19'0 0.0
2016-Aug-25 15:31N 43°41' E 007°19'0 0.0
2016-Aug-25 14:31N 43°41' E 007°19'0 0.0
2016-Aug-25 13:31N 43°41' E 007°19'0 0.0
2016-Aug-25 12:31N 43°41' E 007°19'0 0.0
2016-Aug-25 11:31N 43°41' E 007°19'0 0.0
2016-Aug-25 10:31N 43°41' E 007°19'0 0.0
2016-Aug-25 09:31N 43°41' E 007°19'0 0.0
2016-Aug-25 08:19N 43°41' E 007°19'0 0.0
2016-Aug-25 07:31N 43°41' E 007°19'0 0.0
2016-Aug-25 06:25N 43°41' E 007°19'1 0.7
2016-Aug-25 04:33N 43°40' E 007°19'7 7.0
2016-Aug-25 03:33N 43°38' E 007°28'9 8.9
2016-Aug-25 02:33N 43°37' E 007°40'9 9.3
2016-Aug-25 01:33N 43°37' E 007°53'10 9.6
2016-Aug-25 00:34N 43°36' E 008°06'10 9.7
2016-Aug-24 23:34N 43°36' E 008°20'1615.5
2016-Aug-24 22:33N 43°35' E 008°41'1717.4
2016-Aug-24 21:33N 43°34' E 009°05'1717.3
2016-Aug-24 20:33N 43°33' E 009°29'1717.4
2016-Aug-24 19:33N 43°32' E 009°53'1515.2
2016-Aug-24 18:33N 43°31' E 010°14'4 3.6
2016-Aug-24 17:33N 43°33' E 010°18'0 0.0
2016-Aug-24 16:33N 43°33' E 010°18'0 0.0
2016-Aug-24 15:33N 43°33' E 010°18'0 0.0
2016-Aug-24 14:33N 43°33' E 010°18'0 0.0
2016-Aug-24 13:30N 43°33' E 010°18'0 0.0
2016-Aug-24 12:33N 43°33' E 010°18'0 0.0
2016-Aug-24 11:33N 43°33' E 010°18'0 0.0
2016-Aug-24 10:33N 43°33' E 010°18'0 0.0
2016-Aug-24 09:33N 43°33' E 010°18'0 0.0
2016-Aug-24 08:33N 43°33' E 010°18'0 0.0
2016-Aug-24 07:33N 43°33' E 010°18'0 0.0
2016-Aug-24 06:33N 43°33' E 010°18'0 0.0
2016-Aug-24 04:33N 43°33' E 010°18'8 7.6
2016-Aug-24 03:33N 43°27' E 010°11'1716.9
2016-Aug-24 02:33N 43°11' E 010°05'1716.8
2016-Aug-24 01:33N 42°55' E 009°56'1716.7
2016-Aug-24 00:33N 42°40' E 009°47'1917.0
2016-Aug-23 23:28N 42°21' E 009°49'1716.4
2016-Aug-23 22:25N 42°06' E 009°59'1918.1
2016-Aug-23 21:22N 42°04' E 010°25'1917.6
2016-Aug-23 20:16N 42°02' E 010°50'164 6.3
2016-Aug-22 18:13N 40°37' E 013°58'1116.6
2016-Aug-22 17:33N 40°44' E 014°10'8 0.6
2016-Aug-22 04:33N 40°50' E 014°16'6 6.2
2016-Aug-22 03:33N 40°44' E 014°13'9 8.5
2016-Aug-22 02:33N 40°38' E 014°06'9 8.5
2016-Aug-22 01:31N 40°34' E 013°55'9 9.5
2016-Aug-22 00:33N 40°33' E 013°43'1716.9
2016-Aug-21 23:32N 40°34' E 013°21'1717.8
2016-Aug-21 22:33N 40°38' E 012°58'2517.7
2016-Aug-21 21:08N 40°43' E 012°26'10017.8
2016-Aug-21 15:32N 41°13' E 010°20'2117.9
2016-Aug-21 14:20N 41°19' E 009°52'28218.6
2016-Aug-20 23:11N 41°17' E 003°37'1318.6
2016-Aug-20 22:29N 41°16' E 003°20'1616.6
2016-Aug-20 21:32N 41°17' E 002°59'1717.0
2016-Aug-20 20:33N 41°16' E 002°36'1816.3
2016-Aug-20 19:26N 41°14' E 002°13'7 7.5
2016-Aug-20 18:28N 41°21' E 002°10'0 0.2
2016-Aug-20 17:31N 41°21' E 002°11'0 0.0
2016-Aug-20 16:31N 41°21' E 002°11'0 0.0
2016-Aug-20 15:31N 41°21' E 002°11'0 0.0
2016-Aug-20 14:31N 41°21' E 002°11'0 0.0
2016-Aug-20 13:31N 41°21' E 002°11'0 0.0
2016-Aug-20 12:31N 41°21' E 002°11'0 0.0
2016-Aug-20 11:31N 41°21' E 002°11'0 0.0
2016-Aug-20 10:31N 41°21' E 002°11'0 0.0
2016-Aug-20 09:31N 41°21' E 002°11'0 0.0
2016-Aug-20 08:31N 41°21' E 002°11'0 0.0
2016-Aug-20 07:31N 41°21' E 002°11'0 0.0
2016-Aug-20 05:28N 41°21' E 002°11'0 0.0
2016-Aug-20 03:16N 41°21' E 002°11'3 4.4
2016-Aug-20 02:33N 41°18' E 002°11'7 7.1
2016-Aug-20 01:31N 41°13' E 002°17'8 8.4
2016-Aug-20 00:33N 41°11' E 002°28'8 8.2
2016-Aug-19 23:33N 41°13' E 002°38'8 8.1
2016-Aug-19 22:33N 41°17' E 002°47'8 8.1
2016-Aug-19 21:31N 41°20' E 002°58'8 8.2
2016-Aug-19 20:33N 41°24' E 003°07'9 8.0
2016-Aug-19 19:28N 41°28' E 003°17'7 8.0
2016-Aug-19 18:32N 41°31' E 003°26'8 8.3
2016-Aug-19 17:33N 41°35' E 003°36'10 8.9
2016-Aug-19 16:27N 41°39' E 003°48'10 9.3
2016-Aug-19 15:25N 41°44' E 003°59'17 8.6
2016-Aug-19 13:30N 41°51' E 004°19'117 8.4
2016-Aug-18 23:31N 42°44' E 006°40'21 7.1
2016-Aug-18 20:32N 42°58' E 007°01'14 7.3
2016-Aug-18 18:33N 43°13' E 007°01'9 9.5
2016-Aug-18 17:33N 43°22' E 007°01'9 8.8
2016-Aug-18 16:33N 43°31' E 007°01'1 1.2
2016-Aug-18 15:29N 43°32' E 007°01'0 0.0
2016-Aug-18 14:29N 43°32' E 007°01'0 0.0
2016-Aug-18 13:26N 43°32' E 007°01'0 0.0
2016-Aug-18 12:29N 43°32' E 007°01'0 0.0
2016-Aug-18 11:29N 43°32' E 007°01'0 0.0
2016-Aug-18 10:29N 43°32' E 007°01'0 0.0
2016-Aug-18 09:29N 43°32' E 007°01'0 0.0
2016-Aug-18 08:29N 43°32' E 007°01'0 0.0
2016-Aug-18 07:32N 43°32' E 007°01'0 0.0
2016-Aug-18 06:32N 43°32' E 007°01'0 0.0
2016-Aug-18 05:32N 43°32' E 007°01'2 1.9
2016-Aug-18 04:33N 43°30' E 007°01'1211.7
2016-Aug-18 03:29N 43°29' E 007°18'5217.9
2016-Aug-18 00:33N 43°31' E 008°30'2121.1
2016-Aug-17 23:33N 43°31' E 008°59'2121.1
2016-Aug-17 22:33N 43°32' E 009°28'1818.3
2016-Aug-17 21:33N 43°32' E 009°54'1615.9
2016-Aug-17 20:33N 43°32' E 010°16'2 2.1
2016-Aug-17 19:33N 43°33' E 010°18'0 0.0
2016-Aug-17 18:33N 43°33' E 010°18'0 0.0
2016-Aug-17 17:33N 43°33' E 010°18'0 0.0
2016-Aug-17 16:33N 43°33' E 010°18'0 0.0
2016-Aug-17 15:30N 43°33' E 010°18'0 0.0
2016-Aug-17 14:33N 43°33' E 010°18'0 0.0
2016-Aug-17 13:33N 43°33' E 010°18'0 0.0
2016-Aug-17 12:33N 43°33' E 010°18'0 0.0
2016-Aug-17 10:09N 43°33' E 010°18'0 0.0
2016-Aug-17 09:33N 43°33' E 010°18'0 0.0
2016-Aug-17 08:33N 43°33' E 010°18'0 0.0
2016-Aug-17 07:30N 43°33' E 010°18'0 0.0
2016-Aug-17 06:33N 43°33' E 010°18'0 0.0
2016-Aug-17 05:33N 43°33' E 010°18'0 0.2
2016-Aug-17 04:33N 43°33' E 010°18'8 7.7
2016-Aug-17 03:34N 43°27' E 010°12'1615.6
2016-Aug-17 02:33N 43°12' E 010°05'6616.5
2016-Aug-16 22:33N 42°06' E 009°57'2118.1
2016-Aug-16 21:24N 42°03' E 010°25'1617.7
2016-Aug-16 20:28N 42°02' E 010°48'1718.9
2016-Aug-16 19:33N 42°01' E 011°11'27 5.1
2016-Aug-16 14:17N 42°06' E 011°47'0 0.0
2016-Aug-16 12:32N 42°06' E 011°47'0 0.0
2016-Aug-16 09:08N 42°06' E 011°47'23 3.0
2016-Aug-16 01:27N 41°43' E 011°53'  
Track history (hours):
 
Tides and Currents Weather Stations Pressure Air Temp Water Temp Dewpoint Dewpoint Depression Visibility Wind Speed Wind Dir Waves Ship Positions

Disney Magic

Last reported at 2016-Aug-25 22:12 UTC. Time now 2016-Aug-26 01:32 UTC.
Position N 43°10' E 007°06'.

Type: Passenger vessel. MMSI: 308516000.

Date/timePositionNaut miles runAvg speedWind from/ knotsBaromVisibWave heightAir tempDewpointWater temp
2016-Aug-25 22:12N 43°10' E 007°06'6 9.6
2016-Aug-25 21:33N 43°15' E 007°10'0 0.4
2016-Aug-25 20:33N 43°15' E 007°11'6 6.3
2016-Aug-25 19:33N 43°21' E 007°10'9 9.4
2016-Aug-25 18:33N 43°30' E 007°14'9 9.2
2016-Aug-25 17:33N 43°39' E 007°19'2 2.4
2016-Aug-25 16:31N 43°41' E 007°19'0 0.0
2016-Aug-25 15:31N 43°41' E 007°19'0 0.0
2016-Aug-25 14:31N 43°41' E 007°19'0 0.0
2016-Aug-25 13:31N 43°41' E 007°19'0 0.0
2016-Aug-25 12:31N 43°41' E 007°19'0 0.0
2016-Aug-25 11:31N 43°41' E 007°19'0 0.0
2016-Aug-25 10:31N 43°41' E 007°19'0 0.0
2016-Aug-25 09:31N 43°41' E 007°19'0 0.0
2016-Aug-25 08:19N 43°41' E 007°19'0 0.0
2016-Aug-25 07:31N 43°41' E 007°19'0 0.0
2016-Aug-25 06:25N 43°41' E 007°19'1 0.7
2016-Aug-25 04:33N 43°40' E 007°19'7 7.0
2016-Aug-25 03:33N 43°38' E 007°28'9 8.9
2016-Aug-25 02:33N 43°37' E 007°40'9 9.3
2016-Aug-25 01:33N 43°37' E 007°53'10 9.6
2016-Aug-25 00:34N 43°36' E 008°06'10 9.7
2016-Aug-24 23:34N 43°36' E 008°20'1615.5
2016-Aug-24 22:33N 43°35' E 008°41'1717.4
2016-Aug-24 21:33N 43°34' E 009°05'1717.3
2016-Aug-24 20:33N 43°33' E 009°29'1717.4
2016-Aug-24 19:33N 43°32' E 009°53'1515.2
2016-Aug-24 18:33N 43°31' E 010°14'4 3.6
2016-Aug-24 17:33N 43°33' E 010°18'0 0.0
2016-Aug-24 16:33N 43°33' E 010°18'0 0.0
2016-Aug-24 15:33N 43°33' E 010°18'0 0.0
2016-Aug-24 14:33N 43°33' E 010°18'0 0.0
2016-Aug-24 13:30N 43°33' E 010°18'0 0.0
2016-Aug-24 12:33N 43°33' E 010°18'0 0.0
2016-Aug-24 11:33N 43°33' E 010°18'0 0.0
2016-Aug-24 10:33N 43°33' E 010°18'0 0.0
2016-Aug-24 09:33N 43°33' E 010°18'0 0.0
2016-Aug-24 08:33N 43°33' E 010°18'0 0.0
2016-Aug-24 07:33N 43°33' E 010°18'0 0.0
2016-Aug-24 06:33N 43°33' E 010°18'0 0.0
2016-Aug-24 04:33N 43°33' E 010°18'8 7.6
2016-Aug-24 03:33N 43°27' E 010°11'1716.9
2016-Aug-24 02:33N 43°11' E 010°05'1716.8
2016-Aug-24 01:33N 42°55' E 009°56'1716.7
2016-Aug-24 00:33N 42°40' E 009°47'1917.0
2016-Aug-23 23:28N 42°21' E 009°49'1716.4
2016-Aug-23 22:25N 42°06' E 009°59'1918.1
2016-Aug-23 21:22N 42°04' E 010°25'1917.6
2016-Aug-23 20:16N 42°02' E 010°50'164 6.3
2016-Aug-22 18:13N 40°37' E 013°58'1116.6
2016-Aug-22 17:33N 40°44' E 014°10'8 0.6
2016-Aug-22 04:33N 40°50' E 014°16'6 6.2
2016-Aug-22 03:33N 40°44' E 014°13'9 8.5
2016-Aug-22 02:33N 40°38' E 014°06'9 8.5
2016-Aug-22 01:31N 40°34' E 013°55'9 9.5
2016-Aug-22 00:33N 40°33' E 013°43'1716.9
2016-Aug-21 23:32N 40°34' E 013°21'1717.8
2016-Aug-21 22:33N 40°38' E 012°58'2517.7
2016-Aug-21 21:08N 40°43' E 012°26'10017.8
2016-Aug-21 15:32N 41°13' E 010°20'2117.9
2016-Aug-21 14:20N 41°19' E 009°52'28218.6
2016-Aug-20 23:11N 41°17' E 003°37'1318.6
2016-Aug-20 22:29N 41°16' E 003°20'1616.6
2016-Aug-20 21:32N 41°17' E 002°59'1717.0
2016-Aug-20 20:33N 41°16' E 002°36'1816.3
2016-Aug-20 19:26N 41°14' E 002°13'7 7.5
2016-Aug-20 18:28N 41°21' E 002°10'0 0.2
2016-Aug-20 17:31N 41°21' E 002°11'0 0.0
2016-Aug-20 16:31N 41°21' E 002°11'0 0.0
2016-Aug-20 15:31N 41°21' E 002°11'0 0.0
2016-Aug-20 14:31N 41°21' E 002°11'0 0.0
2016-Aug-20 13:31N 41°21' E 002°11'0 0.0
2016-Aug-20 12:31N 41°21' E 002°11'0 0.0
2016-Aug-20 11:31N 41°21' E 002°11'0 0.0
2016-Aug-20 10:31N 41°21' E 002°11'0 0.0
2016-Aug-20 09:31N 41°21' E 002°11'0 0.0
2016-Aug-20 08:31N 41°21' E 002°11'0 0.0
2016-Aug-20 07:31N 41°21' E 002°11'0 0.0
2016-Aug-20 05:28N 41°21' E 002°11'0 0.0
2016-Aug-20 03:16N 41°21' E 002°11'3 4.4
2016-Aug-20 02:33N 41°18' E 002°11'7 7.1
2016-Aug-20 01:31N 41°13' E 002°17'8 8.4
2016-Aug-20 00:33N 41°11' E 002°28'8 8.2
2016-Aug-19 23:33N 41°13' E 002°38'8 8.1
2016-Aug-19 22:33N 41°17' E 002°47'8 8.1
2016-Aug-19 21:31N 41°20' E 002°58'8 8.2
2016-Aug-19 20:33N 41°24' E 003°07'9 8.0
2016-Aug-19 19:28N 41°28' E 003°17'7 8.0
2016-Aug-19 18:32N 41°31' E 003°26'8 8.3
2016-Aug-19 17:33N 41°35' E 003°36'10 8.9
2016-Aug-19 16:27N 41°39' E 003°48'10 9.3
2016-Aug-19 15:25N 41°44' E 003°59'17 8.6
2016-Aug-19 13:30N 41°51' E 004°19'117 8.4
2016-Aug-18 23:31N 42°44' E 006°40'21 7.1
2016-Aug-18 20:32N 42°58' E 007°01'14 7.3
2016-Aug-18 18:33N 43°13' E 007°01'9 9.5
2016-Aug-18 17:33N 43°22' E 007°01'9 8.8
2016-Aug-18 16:33N 43°31' E 007°01'1 1.2
2016-Aug-18 15:29N 43°32' E 007°01'0 0.0
2016-Aug-18 14:29N 43°32' E 007°01'0 0.0
2016-Aug-18 13:26N 43°32' E 007°01'0 0.0
2016-Aug-18 12:29N 43°32' E 007°01'0 0.0
2016-Aug-18 11:29N 43°32' E 007°01'0 0.0
2016-Aug-18 10:29N 43°32' E 007°01'0 0.0
2016-Aug-18 09:29N 43°32' E 007°01'0 0.0
2016-Aug-18 08:29N 43°32' E 007°01'0 0.0
2016-Aug-18 07:32N 43°32' E 007°01'0 0.0
2016-Aug-18 06:32N 43°32' E 007°01'0 0.0
2016-Aug-18 05:32N 43°32' E 007°01'2 1.9
2016-Aug-18 04:33N 43°30' E 007°01'1211.7
2016-Aug-18 03:29N 43°29' E 007°18'5217.9
2016-Aug-18 00:33N 43°31' E 008°30'2121.1
2016-Aug-17 23:33N 43°31' E 008°59'2121.1
2016-Aug-17 22:33N 43°32' E 009°28'1818.3
2016-Aug-17 21:33N 43°32' E 009°54'1615.9
2016-Aug-17 20:33N 43°32' E 010°16'2 2.1
2016-Aug-17 19:33N 43°33' E 010°18'0 0.0
2016-Aug-17 18:33N 43°33' E 010°18'0 0.0
2016-Aug-17 17:33N 43°33' E 010°18'0 0.0
2016-Aug-17 16:33N 43°33' E 010°18'0 0.0
2016-Aug-17 15:30N 43°33' E 010°18'0 0.0
2016-Aug-17 14:33N 43°33' E 010°18'0 0.0
2016-Aug-17 13:33N 43°33' E 010°18'0 0.0
2016-Aug-17 12:33N 43°33' E 010°18'0 0.0
2016-Aug-17 10:09N 43°33' E 010°18'0 0.0
2016-Aug-17 09:33N 43°33' E 010°18'0 0.0
2016-Aug-17 08:33N 43°33' E 010°18'0 0.0
2016-Aug-17 07:30N 43°33' E 010°18'0 0.0
2016-Aug-17 06:33N 43°33' E 010°18'0 0.0
2016-Aug-17 05:33N 43°33' E 010°18'0 0.2
2016-Aug-17 04:33N 43°33' E 010°18'8 7.7
2016-Aug-17 03:34N 43°27' E 010°12'1615.6
2016-Aug-17 02:33N 43°12' E 010°05'6616.5
2016-Aug-16 22:33N 42°06' E 009°57'2118.1
2016-Aug-16 21:24N 42°03' E 010°25'1617.7
2016-Aug-16 20:28N 42°02' E 010°48'1718.9
2016-Aug-16 19:33N 42°01' E 011°11'27 5.1
2016-Aug-16 14:17N 42°06' E 011°47'0 0.0
2016-Aug-16 12:32N 42°06' E 011°47'0 0.0
2016-Aug-16 09:08N 42°06' E 011°47'23 3.0
2016-Aug-16 01:27N 41°43' E 011°53'  

Dump ship's entire track history